sensor_id;sensor_type;location;lat;lon;timestamp;pressure;altitude;pressure_sealevel;temperature
19102;BMP280;9683;49.028;12.064;2023-07-08T00:00:39;97567.94;;;21.86
19102;BMP280;9683;49.028;12.064;2023-07-08T00:03:06;97550.41;;;21.78
19102;BMP280;9683;49.028;12.064;2023-07-08T00:05:33;97561.75;;;21.80
19102;BMP280;9683;49.028;12.064;2023-07-08T00:08:00;97552.94;;;21.70
19102;BMP280;9683;49.028;12.064;2023-07-08T00:10:28;97546.22;;;21.67
19102;BMP280;9683;49.028;12.064;2023-07-08T00:12:57;97540.25;;;21.65
19102;BMP280;9683;49.028;12.064;2023-07-08T00:15:26;97541.34;;;21.64
19102;BMP280;9683;49.028;12.064;2023-07-08T00:17:53;97535.41;;;21.62
19102;BMP280;9683;49.028;12.064;2023-07-08T00:20:22;97538.16;;;21.57
19102;BMP280;9683;49.028;12.064;2023-07-08T00:22:49;97535.19;;;21.59
19102;BMP280;9683;49.028;12.064;2023-07-08T00:25:16;97514.69;;;21.47
19102;BMP280;9683;49.028;12.064;2023-07-08T00:27:46;97546.25;;;21.62
19102;BMP280;9683;49.028;12.064;2023-07-08T00:30:20;97540.88;;;21.57
19102;BMP280;9683;49.028;12.064;2023-07-08T00:32:47;97544.47;;;21.47
19102;BMP280;9683;49.028;12.064;2023-07-08T00:35:19;97547.00;;;21.39
19102;BMP280;9683;49.028;12.064;2023-07-08T00:37:46;97540.88;;;21.28
19102;BMP280;9683;49.028;12.064;2023-07-08T00:40:15;97527.72;;;21.12
19102;BMP280;9683;49.028;12.064;2023-07-08T00:42:44;97537.50;;;21.13
19102;BMP280;9683;49.028;12.064;2023-07-08T00:45:21;97537.75;;;21.11
19102;BMP280;9683;49.028;12.064;2023-07-08T00:47:49;97540.72;;;21.10
19102;BMP280;9683;49.028;12.064;2023-07-08T00:50:16;97533.19;;;21.01
19102;BMP280;9683;49.028;12.064;2023-07-08T00:52:44;97544.28;;;21.05
19102;BMP280;9683;49.028;12.064;2023-07-08T00:55:11;97532.44;;;20.96
19102;BMP280;9683;49.028;12.064;2023-07-08T00:57:41;97551.66;;;20.99
19102;BMP280;9683;49.028;12.064;2023-07-08T01:00:10;97512.34;;;20.68
19102;BMP280;9683;49.028;12.064;2023-07-08T01:02:42;97555.50;;;20.88
19102;BMP280;9683;49.028;12.064;2023-07-08T01:05:12;97549.03;;;20.84
19102;BMP280;9683;49.028;12.064;2023-07-08T01:07:42;97543.94;;;20.78
19102;BMP280;9683;49.028;12.064;2023-07-08T01:10:12;97558.50;;;20.87
19102;BMP280;9683;49.028;12.064;2023-07-08T01:12:43;97551.47;;;20.86
19102;BMP280;9683;49.028;12.064;2023-07-08T01:15:11;97542.59;;;20.75
19102;BMP280;9683;49.028;12.064;2023-07-08T01:17:41;97549.59;;;20.81
19102;BMP280;9683;49.028;12.064;2023-07-08T01:20:09;97547.16;;;20.80
19102;BMP280;9683;49.028;12.064;2023-07-08T01:22:39;97541.75;;;20.80
19102;BMP280;9683;49.028;12.064;2023-07-08T01:25:07;97498.84;;;20.63
19102;BMP280;9683;49.028;12.064;2023-07-08T01:27:38;97518.00;;;20.72
19102;BMP280;9683;49.028;12.064;2023-07-08T01:30:07;97518.53;;;20.74
19102;BMP280;9683;49.028;12.064;2023-07-08T01:32:34;97532.03;;;20.79
19102;BMP280;9683;49.028;12.064;2023-07-08T01:35:04;97502.88;;;20.71
19102;BMP280;9683;49.028;12.064;2023-07-08T01:37:35;97528.53;;;20.73
19102;BMP280;9683;49.028;12.064;2023-07-08T01:40:24;97517.53;;;20.59
19102;BMP280;9683;49.028;12.064;2023-07-08T01:42:52;97483.63;;;20.28
19102;BMP280;9683;49.028;12.064;2023-07-08T01:45:20;97507.34;;;20.46
19102;BMP280;9683;49.028;12.064;2023-07-08T01:47:50;97520.00;;;20.56
19102;BMP280;9683;49.028;12.064;2023-07-08T01:50:18;97516.22;;;20.57
19102;BMP280;9683;49.028;12.064;2023-07-08T01:52:45;97500.06;;;20.42
19102;BMP280;9683;49.028;12.064;2023-07-08T01:55:12;97476.88;;;20.26
19102;BMP280;9683;49.028;12.064;2023-07-08T01:57:40;97523.88;;;20.45
19102;BMP280;9683;49.028;12.064;2023-07-08T02:00:07;97497.13;;;20.33
19102;BMP280;9683;49.028;12.064;2023-07-08T02:02:34;97513.56;;;20.42
19102;BMP280;9683;49.028;12.064;2023-07-08T02:05:00;97521.91;;;20.50
19102;BMP280;9683;49.028;12.064;2023-07-08T02:07:27;97495.78;;;20.36
19102;BMP280;9683;49.028;12.064;2023-07-08T02:09:54;97509.78;;;20.43
19102;BMP280;9683;49.028;12.064;2023-07-08T02:12:21;97477.69;;;20.26
19102;BMP280;9683;49.028;12.064;2023-07-08T02:14:49;97496.03;;;20.39
19102;BMP280;9683;49.028;12.064;2023-07-08T02:17:15;97526.28;;;20.46
19102;BMP280;9683;49.028;12.064;2023-07-08T02:19:42;97516.34;;;20.37
19102;BMP280;9683;49.028;12.064;2023-07-08T02:22:09;97527.41;;;20.35
19102;BMP280;9683;49.028;12.064;2023-07-08T02:24:35;97510.41;;;20.30
19102;BMP280;9683;49.028;12.064;2023-07-08T02:27:02;97524.72;;;20.35
19102;BMP280;9683;49.028;12.064;2023-07-08T02:29:29;97527.94;;;20.37
19102;BMP280;9683;49.028;12.064;2023-07-08T02:31:58;97524.44;;;20.37
19102;BMP280;9683;49.028;12.064;2023-07-08T02:34:25;97527.16;;;20.27
19102;BMP280;9683;49.028;12.064;2023-07-08T02:36:51;97482.16;;;19.92
19102;BMP280;9683;49.028;12.064;2023-07-08T02:39:18;97527.50;;;20.15
19102;BMP280;9683;49.028;12.064;2023-07-08T02:41:44;97523.19;;;20.09
19102;BMP280;9683;49.028;12.064;2023-07-08T02:44:11;97473.31;;;19.76
19102;BMP280;9683;49.028;12.064;2023-07-08T02:46:37;97472.50;;;19.81
19102;BMP280;9683;49.028;12.064;2023-07-08T02:49:06;97522.94;;;20.00
19102;BMP280;9683;49.028;12.064;2023-07-08T02:51:32;97505.44;;;19.88
19102;BMP280;9683;49.028;12.064;2023-07-08T02:53:59;97491.16;;;19.72
19102;BMP280;9683;49.028;12.064;2023-07-08T02:56:25;97504.94;;;19.76
19102;BMP280;9683;49.028;12.064;2023-07-08T02:58:53;97431.56;;;19.28
19102;BMP280;9683;49.028;12.064;2023-07-08T03:01:19;97519.25;;;19.81
19102;BMP280;9683;49.028;12.064;2023-07-08T03:03:46;97518.94;;;19.83
19102;BMP280;9683;49.028;12.064;2023-07-08T03:06:15;97513.28;;;19.84
19102;BMP280;9683;49.028;12.064;2023-07-08T03:08:42;97475.53;;;19.59
19102;BMP280;9683;49.028;12.064;2023-07-08T03:11:08;97477.97;;;19.60
19102;BMP280;9683;49.028;12.064;2023-07-08T03:13:35;97503.84;;;19.77
19102;BMP280;9683;49.028;12.064;2023-07-08T03:16:03;97519.00;;;19.78
19102;BMP280;9683;49.028;12.064;2023-07-08T03:18:33;97492.31;;;19.61
19102;BMP280;9683;49.028;12.064;2023-07-08T03:21:04;97507.66;;;19.71
19102;BMP280;9683;49.028;12.064;2023-07-08T03:23:32;97518.19;;;19.77
19102;BMP280;9683;49.028;12.064;2023-07-08T03:25:59;97486.09;;;19.50
19102;BMP280;9683;49.028;12.064;2023-07-08T03:28:25;97534.66;;;19.71
19102;BMP280;9683;49.028;12.064;2023-07-08T03:30:52;97526.84;;;19.64
19102;BMP280;9683;49.028;12.064;2023-07-08T03:33:19;97527.13;;;19.57
19102;BMP280;9683;49.028;12.064;2023-07-08T03:35:46;97522.28;;;19.54
19102;BMP280;9683;49.028;12.064;2023-07-08T03:38:12;97534.44;;;19.52
19102;BMP280;9683;49.028;12.064;2023-07-08T03:40:40;97532.25;;;19.54
19102;BMP280;9683;49.028;12.064;2023-07-08T03:43:07;97507.16;;;19.38
19102;BMP280;9683;49.028;12.064;2023-07-08T03:45:33;97500.69;;;19.34
19102;BMP280;9683;49.028;12.064;2023-07-08T03:48:00;97526.34;;;19.47
19102;BMP280;9683;49.028;12.064;2023-07-08T03:50:27;97455.94;;;18.98
19102;BMP280;9683;49.028;12.064;2023-07-08T03:52:54;97543.91;;;19.44
19102;BMP280;9683;49.028;12.064;2023-07-08T03:55:21;97543.63;;;19.46
19102;BMP280;9683;49.028;12.064;2023-07-08T03:57:49;97515.00;;;19.30
19102;BMP280;9683;49.028;12.064;2023-07-08T04:00:16;97539.59;;;19.48
19102;BMP280;9683;49.028;12.064;2023-07-08T04:02:43;97531.50;;;19.48
19102;BMP280;9683;49.028;12.064;2023-07-08T04:05:13;97538.47;;;19.49
19102;BMP280;9683;49.028;12.064;2023-07-08T04:07:40;97530.94;;;19.46
19102;BMP280;9683;49.028;12.064;2023-07-08T04:10:07;97522.81;;;19.41
19102;BMP280;9683;49.028;12.064;2023-07-08T04:12:34;97533.91;;;19.45
19102;BMP280;9683;49.028;12.064;2023-07-08T04:15:02;97519.03;;;19.37
19102;BMP280;9683;49.028;12.064;2023-07-08T04:17:29;97503.13;;;19.26
19102;BMP280;9683;49.028;12.064;2023-07-08T04:19:56;97538.47;;;19.49
19102;BMP280;9683;49.028;12.064;2023-07-08T04:22:22;97516.63;;;19.36
19102;BMP280;9683;49.028;12.064;2023-07-08T04:24:49;97545.78;;;19.54
19102;BMP280;9683;49.028;12.064;2023-07-08T04:27:17;97549.03;;;19.56
19102;BMP280;9683;49.028;12.064;2023-07-08T04:29:44;97548.47;;;19.49
19102;BMP280;9683;49.028;12.064;2023-07-08T04:32:11;97556.88;;;19.47
19102;BMP280;9683;49.028;12.064;2023-07-08T04:34:38;97543.06;;;19.34
19102;BMP280;9683;49.028;12.064;2023-07-08T04:37:04;97548.19;;;19.40
19102;BMP280;9683;49.028;12.064;2023-07-08T04:39:32;97526.63;;;19.30
19102;BMP280;9683;49.028;12.064;2023-07-08T04:41:58;97543.59;;;19.41
19102;BMP280;9683;49.028;12.064;2023-07-08T04:44:25;97545.78;;;19.49
19102;BMP280;9683;49.028;12.064;2023-07-08T04:46:54;97547.94;;;19.52
19102;BMP280;9683;49.028;12.064;2023-07-08T04:49:24;97535.78;;;19.54
19102;BMP280;9683;49.028;12.064;2023-07-08T04:51:57;97512.56;;;19.38
19102;BMP280;9683;49.028;12.064;2023-07-08T04:54:23;97543.31;;;19.62
19102;BMP280;9683;49.028;12.064;2023-07-08T04:56:50;97542.75;;;19.65
19102;BMP280;9683;49.028;12.064;2023-07-08T04:59:20;97521.47;;;19.54
19102;BMP280;9683;49.028;12.064;2023-07-08T05:01:47;97550.59;;;19.72
19102;BMP280;9683;49.028;12.064;2023-07-08T05:04:15;97521.44;;;19.64
19102;BMP280;9683;49.028;12.064;2023-07-08T05:06:43;97536.53;;;19.80
19102;BMP280;9683;49.028;12.064;2023-07-08T05:09:10;97536.28;;;19.82
19102;BMP280;9683;49.028;12.064;2023-07-08T05:11:36;97508.47;;;19.71
19102;BMP280;9683;49.028;12.064;2023-07-08T05:14:04;97531.63;;;19.87
19102;BMP280;9683;49.028;12.064;2023-07-08T05:16:33;97544.59;;;19.95
19102;BMP280;9683;49.028;12.064;2023-07-08T05:19:01;97546.75;;;19.98
19102;BMP280;9683;49.028;12.064;2023-07-08T05:21:29;97544.00;;;20.03
19102;BMP280;9683;49.028;12.064;2023-07-08T05:24:00;97515.69;;;19.91
19102;BMP280;9683;49.028;12.064;2023-07-08T05:26:27;97549.41;;;20.08
19102;BMP280;9683;49.028;12.064;2023-07-08T05:28:53;97542.91;;;20.14
19102;BMP280;9683;49.028;12.064;2023-07-08T05:31:20;97552.34;;;20.17
19102;BMP280;9683;49.028;12.064;2023-07-08T05:33:46;97538.81;;;20.22
19102;BMP280;9683;49.028;12.064;2023-07-08T05:36:13;97546.91;;;20.22
19102;BMP280;9683;49.028;12.064;2023-07-08T05:38:39;97549.59;;;20.27
19102;BMP280;9683;49.028;12.064;2023-07-08T05:41:07;97540.97;;;20.30
19102;BMP280;9683;49.028;12.064;2023-07-08T05:43:34;97531.50;;;20.23
19102;BMP280;9683;49.028;12.064;2023-07-08T05:46:01;97561.19;;;20.43
19102;BMP280;9683;49.028;12.064;2023-07-08T05:48:28;97549.88;;;20.36
19102;BMP280;9683;49.028;12.064;2023-07-08T05:50:55;97542.50;;;20.41
19102;BMP280;9683;49.028;12.064;2023-07-08T05:53:22;97559.75;;;20.55
19102;BMP280;9683;49.028;12.064;2023-07-08T05:55:48;97550.34;;;20.48
19102;BMP280;9683;49.028;12.064;2023-07-08T05:58:16;97565.97;;;20.61
19102;BMP280;9683;49.028;12.064;2023-07-08T06:00:43;97567.84;;;20.66
19102;BMP280;9683;49.028;12.064;2023-07-08T06:03:10;97527.06;;;20.47
19102;BMP280;9683;49.028;12.064;2023-07-08T06:05:37;97572.66;;;20.74
19102;BMP280;9683;49.028;12.064;2023-07-08T06:08:04;97566.16;;;20.75
19102;BMP280;9683;49.028;12.064;2023-07-08T06:10:31;97562.09;;;20.72
19102;BMP280;9683;49.028;12.064;2023-07-08T06:12:58;97571.50;;;20.85
19102;BMP280;9683;49.028;12.064;2023-07-08T06:15:25;97576.88;;;20.90
19102;BMP280;9683;49.028;12.064;2023-07-08T06:17:52;97535.88;;;20.68
19102;BMP280;9683;49.028;12.064;2023-07-08T06:20:18;97579.53;;;21.00
19102;BMP280;9683;49.028;12.064;2023-07-08T06:22:45;97563.56;;;20.98
19102;BMP280;9683;49.028;12.064;2023-07-08T06:25:11;97570.00;;;21.08
19102;BMP280;9683;49.028;12.064;2023-07-08T06:27:38;97574.84;;;21.16
19102;BMP280;9683;49.028;12.064;2023-07-08T06:30:06;97561.81;;;21.18
19102;BMP280;9683;49.028;12.064;2023-07-08T06:32:34;97560.94;;;21.27
19102;BMP280;9683;49.028;12.064;2023-07-08T06:35:00;97542.78;;;21.28
19102;BMP280;9683;49.028;12.064;2023-07-08T06:37:27;97554.84;;;21.40
19102;BMP280;9683;49.028;12.064;2023-07-08T06:39:53;97551.00;;;21.46
19102;BMP280;9683;49.028;12.064;2023-07-08T06:42:20;97549.34;;;21.51
19102;BMP280;9683;49.028;12.064;2023-07-08T06:44:46;97555.22;;;21.58
19102;BMP280;9683;49.028;12.064;2023-07-08T06:47:16;97563.31;;;21.63
19102;BMP280;9683;49.028;12.064;2023-07-08T06:49:43;97563.78;;;21.70
19102;BMP280;9683;49.028;12.064;2023-07-08T06:52:10;97557.50;;;21.74
19102;BMP280;9683;49.028;12.064;2023-07-08T06:54:36;97549.84;;;21.81
19102;BMP280;9683;49.028;12.064;2023-07-08T06:57:03;97542.75;;;21.85
19102;BMP280;9683;49.028;12.064;2023-07-08T06:59:30;97550.56;;;21.92
19102;BMP280;9683;49.028;12.064;2023-07-08T07:01:56;97530.47;;;21.93
19102;BMP280;9683;49.028;12.064;2023-07-08T07:04:23;97536.06;;;22.02
19102;BMP280;9683;49.028;12.064;2023-07-08T07:06:51;97528.09;;;22.10
19102;BMP280;9683;49.028;12.064;2023-07-08T07:09:17;97517.50;;;22.14
19102;BMP280;9683;49.028;12.064;2023-07-08T07:11:44;97522.84;;;22.19
19102;BMP280;9683;49.028;12.064;2023-07-08T07:14:10;97533.06;;;22.27
19102;BMP280;9683;49.028;12.064;2023-07-08T07:16:37;97540.31;;;22.31
19102;BMP280;9683;49.028;12.064;2023-07-08T07:19:03;97543.50;;;22.38
19102;BMP280;9683;49.028;12.064;2023-07-08T07:21:30;97543.66;;;22.47
19102;BMP280;9683;49.028;12.064;2023-07-08T07:23:57;97543.22;;;22.59
19102;BMP280;9683;49.028;12.064;2023-07-08T07:26:24;97542.84;;;22.65
19102;BMP280;9683;49.028;12.064;2023-07-08T07:28:50;97540.63;;;22.72
19102;BMP280;9683;49.028;12.064;2023-07-08T07:31:17;97539.16;;;22.80
19102;BMP280;9683;49.028;12.064;2023-07-08T07:33:43;97532.25;;;22.88
19102;BMP280;9683;49.028;12.064;2023-07-08T07:36:10;97537.59;;;22.93
19102;BMP280;9683;49.028;12.064;2023-07-08T07:38:36;97538.41;;;22.93
19102;BMP280;9683;49.028;12.064;2023-07-08T07:41:04;97535.22;;;23.05
19102;BMP280;9683;49.028;12.064;2023-07-08T07:43:32;97523.09;;;23.16
19102;BMP280;9683;49.028;12.064;2023-07-08T07:45:59;97521.31;;;23.25
19102;BMP280;9683;49.028;12.064;2023-07-08T07:48:25;97540.47;;;23.34
19102;BMP280;9683;49.028;12.064;2023-07-08T07:50:52;97531.41;;;23.38
19102;BMP280;9683;49.028;12.064;2023-07-08T07:53:18;97534.91;;;23.44
19102;BMP280;9683;49.028;12.064;2023-07-08T07:55:45;97537.22;;;23.50
19102;BMP280;9683;49.028;12.064;2023-07-08T07:58:12;97542.75;;;23.59
19102;BMP280;9683;49.028;12.064;2023-07-08T08:00:39;97538.06;;;23.64
19102;BMP280;9683;49.028;12.064;2023-07-08T08:03:06;97549.44;;;23.80
19102;BMP280;9683;49.028;12.064;2023-07-08T08:05:32;97546.31;;;23.87
19102;BMP280;9683;49.028;12.064;2023-07-08T08:07:59;97548.13;;;23.91
19102;BMP280;9683;49.028;12.064;2023-07-08T08:10:25;97554.59;;;23.95
19102;BMP280;9683;49.028;12.064;2023-07-08T08:12:52;97555.00;;;24.02
19102;BMP280;9683;49.028;12.064;2023-07-08T08:15:21;97557.84;;;24.11
19102;BMP280;9683;49.028;12.064;2023-07-08T08:17:47;97554.78;;;24.12
19102;BMP280;9683;49.028;12.064;2023-07-08T08:20:17;97531.81;;;24.05
19102;BMP280;9683;49.028;12.064;2023-07-08T08:22:43;97546.75;;;24.21
19102;BMP280;9683;49.028;12.064;2023-07-08T08:25:10;97545.66;;;24.22
19102;BMP280;9683;49.028;12.064;2023-07-08T08:27:36;97543.31;;;24.29
19102;BMP280;9683;49.028;12.064;2023-07-08T08:30:05;97560.25;;;24.40
19102;BMP280;9683;49.028;12.064;2023-07-08T08:32:33;97547.31;;;24.45
19102;BMP280;9683;49.028;12.064;2023-07-08T08:35:00;97557.63;;;24.48
19102;BMP280;9683;49.028;12.064;2023-07-08T08:37:26;97552.09;;;24.53
19102;BMP280;9683;49.028;12.064;2023-07-08T08:39:52;97553.56;;;24.59
19102;BMP280;9683;49.028;12.064;2023-07-08T08:42:25;97555.38;;;24.64
19102;BMP280;9683;49.028;12.064;2023-07-08T08:44:52;97558.63;;;24.66
19102;BMP280;9683;49.028;12.064;2023-07-08T08:47:25;97562.53;;;24.74
19102;BMP280;9683;49.028;12.064;2023-07-08T08:49:59;97555.84;;;24.80
19102;BMP280;9683;49.028;12.064;2023-07-08T08:52:27;97553.00;;;24.85
19102;BMP280;9683;49.028;12.064;2023-07-08T08:54:53;97549.28;;;24.94
19102;BMP280;9683;49.028;12.064;2023-07-08T08:57:31;97526.69;;;24.80
19102;BMP280;9683;49.028;12.064;2023-07-08T08:59:59;97561.88;;;25.04
19102;BMP280;9683;49.028;12.064;2023-07-08T09:02:31;97561.34;;;25.02
19102;BMP280;9683;49.028;12.064;2023-07-08T09:05:03;97556.28;;;25.09
19102;BMP280;9683;49.028;12.064;2023-07-08T09:07:36;97550.81;;;25.09
19102;BMP280;9683;49.028;12.064;2023-07-08T09:10:09;97555.69;;;25.12
19102;BMP280;9683;49.028;12.064;2023-07-08T09:12:38;97555.06;;;25.15
19102;BMP280;9683;49.028;12.064;2023-07-08T09:15:11;97563.78;;;25.26
19102;BMP280;9683;49.028;12.064;2023-07-08T09:17:38;97560.44;;;25.29
19102;BMP280;9683;49.028;12.064;2023-07-08T09:20:17;97561.63;;;25.36
19102;BMP280;9683;49.028;12.064;2023-07-08T09:22:50;97538.31;;;25.30
19102;BMP280;9683;49.028;12.064;2023-07-08T09:25:24;97552.06;;;25.47
19102;BMP280;9683;49.028;12.064;2023-07-08T09:27:51;97547.50;;;25.57
19102;BMP280;9683;49.028;12.064;2023-07-08T09:30:20;97545.31;;;25.67
19102;BMP280;9683;49.028;12.064;2023-07-08T09:32:47;97539.88;;;25.67
19102;BMP280;9683;49.028;12.064;2023-07-08T09:35:19;97549.06;;;25.80
19102;BMP280;9683;49.028;12.064;2023-07-08T09:37:47;97555.34;;;25.89
19102;BMP280;9683;49.028;12.064;2023-07-08T09:40:16;97549.94;;;25.97
19102;BMP280;9683;49.028;12.064;2023-07-08T09:42:46;97552.69;;;26.06
19102;BMP280;9683;49.028;12.064;2023-07-08T09:45:17;97553.06;;;26.13
19102;BMP280;9683;49.028;12.064;2023-07-08T09:47:44;97553.44;;;26.20
19102;BMP280;9683;49.028;12.064;2023-07-08T09:50:20;97546.56;;;26.31
19102;BMP280;9683;49.028;12.064;2023-07-08T09:52:47;97555.09;;;26.38
19102;BMP280;9683;49.028;12.064;2023-07-08T09:55:14;97552.19;;;26.43
19102;BMP280;9683;49.028;12.064;2023-07-08T09:57:43;97554.00;;;26.57
19102;BMP280;9683;49.028;12.064;2023-07-08T10:00:12;97553.22;;;26.65
19102;BMP280;9683;49.028;12.064;2023-07-08T10:02:43;97560.78;;;26.68
19102;BMP280;9683;49.028;12.064;2023-07-08T10:05:17;97554.03;;;26.74
19102;BMP280;9683;49.028;12.064;2023-07-08T10:07:46;97563.69;;;26.80
19102;BMP280;9683;49.028;12.064;2023-07-08T10:10:16;97547.91;;;26.77
19102;BMP280;9683;49.028;12.064;2023-07-08T10:12:52;97561.00;;;26.88
19102;BMP280;9683;49.028;12.064;2023-07-08T10:15:22;97562.28;;;26.91
19102;BMP280;9683;49.028;12.064;2023-07-08T10:17:50;97568.25;;;26.93
19102;BMP280;9683;49.028;12.064;2023-07-08T10:20:17;97573.06;;;26.96
19102;BMP280;9683;49.028;12.064;2023-07-08T10:23:00;97568.41;;;26.97
19102;BMP280;9683;49.028;12.064;2023-07-08T10:25:35;97577.56;;;27.01
19102;BMP280;9683;49.028;12.064;2023-07-08T10:28:19;97572.91;;;27.01
19102;BMP280;9683;49.028;12.064;2023-07-08T10:30:58;97575.66;;;27.10
19102;BMP280;9683;49.028;12.064;2023-07-08T10:33:48;97546.69;;;27.00
19102;BMP280;9683;49.028;12.064;2023-07-08T10:36:23;97567.25;;;27.15
19102;BMP280;9683;49.028;12.064;2023-07-08T10:39:04;97565.16;;;27.20
19102;BMP280;9683;49.028;12.064;2023-07-08T10:41:46;97574.34;;;27.24
19102;BMP280;9683;49.028;12.064;2023-07-08T10:44:20;97580.31;;;27.26
19102;BMP280;9683;49.028;12.064;2023-07-08T10:46:55;97581.88;;;27.27
19102;BMP280;9683;49.028;12.064;2023-07-08T10:49:39;97582.38;;;27.29
19102;BMP280;9683;49.028;12.064;2023-07-08T10:52:23;97587.03;;;27.29
19102;BMP280;9683;49.028;12.064;2023-07-08T10:55:20;97585.94;;;27.30
19102;BMP280;9683;49.028;12.064;2023-07-08T10:58:11;97564.53;;;27.15
19102;BMP280;9683;49.028;12.064;2023-07-08T11:00:46;97578.69;;;27.25
19102;BMP280;9683;49.028;12.064;2023-07-08T11:03:39;97579.50;;;27.26
19102;BMP280;9683;49.028;12.064;2023-07-08T11:06:13;97575.66;;;27.27
19102;BMP280;9683;49.028;12.064;2023-07-08T11:08:44;97579.66;;;27.29
19102;BMP280;9683;49.028;12.064;2023-07-08T11:11:25;97580.63;;;27.33
19102;BMP280;9683;49.028;12.064;2023-07-08T11:13:55;97581.56;;;27.38
19102;BMP280;9683;49.028;12.064;2023-07-08T11:16:28;97566.91;;;27.42
19102;BMP280;9683;49.028;12.064;2023-07-08T11:18:58;97564.06;;;27.47
19102;BMP280;9683;49.028;12.064;2023-07-08T11:21:32;97569.69;;;27.51
19102;BMP280;9683;49.028;12.064;2023-07-08T11:24:05;97565.66;;;27.57
19102;BMP280;9683;49.028;12.064;2023-07-08T11:26:39;97569.97;;;27.66
19102;BMP280;9683;49.028;12.064;2023-07-08T11:29:14;97564.00;;;27.73
19102;BMP280;9683;49.028;12.064;2023-07-08T11:31:42;97572.03;;;27.78
19102;BMP280;9683;49.028;12.064;2023-07-08T11:34:10;97569.44;;;27.82
19102;BMP280;9683;49.028;12.064;2023-07-08T11:36:39;97567.81;;;27.89
19102;BMP280;9683;49.028;12.064;2023-07-08T11:39:26;97561.50;;;27.97
19102;BMP280;9683;49.028;12.064;2023-07-08T11:42:04;97564.22;;;28.06
19102;BMP280;9683;49.028;12.064;2023-07-08T11:44:33;97559.72;;;28.10
19102;BMP280;9683;49.028;12.064;2023-07-08T11:47:00;97559.53;;;28.15
19102;BMP280;9683;49.028;12.064;2023-07-08T11:49:26;97556.25;;;28.21
19102;BMP280;9683;49.028;12.064;2023-07-08T11:51:56;97554.97;;;28.28
19102;BMP280;9683;49.028;12.064;2023-07-08T11:54:27;97549.75;;;28.35
19102;BMP280;9683;49.028;12.064;2023-07-08T11:57:01;97556.19;;;28.39
19102;BMP280;9683;49.028;12.064;2023-07-08T11:59:32;97519.84;;;28.21
19102;BMP280;9683;49.028;12.064;2023-07-08T12:02:03;97522.41;;;28.26
19102;BMP280;9683;49.028;12.064;2023-07-08T12:04:32;97562.22;;;28.53
19102;BMP280;9683;49.028;12.064;2023-07-08T12:07:11;97562.38;;;28.56
19102;BMP280;9683;49.028;12.064;2023-07-08T12:09:47;97553.47;;;28.59
19102;BMP280;9683;49.028;12.064;2023-07-08T12:12:21;97538.69;;;28.52
19102;BMP280;9683;49.028;12.064;2023-07-08T12:14:49;97548.78;;;28.60
19102;BMP280;9683;49.028;12.064;2023-07-08T12:17:16;97546.06;;;28.60
19102;BMP280;9683;49.028;12.064;2023-07-08T12:19:44;97529.78;;;28.55
19102;BMP280;9683;49.028;12.064;2023-07-08T12:22:13;97546.19;;;28.63
19102;BMP280;9683;49.028;12.064;2023-07-08T12:24:40;97538.09;;;28.67
19102;BMP280;9683;49.028;12.064;2023-07-08T12:27:09;97541.47;;;28.73
19102;BMP280;9683;49.028;12.064;2023-07-08T12:29:37;97544.34;;;28.76
19102;BMP280;9683;49.028;12.064;2023-07-08T12:32:04;97542.22;;;28.82
19102;BMP280;9683;49.028;12.064;2023-07-08T12:34:32;97539.81;;;28.80
19102;BMP280;9683;49.028;12.064;2023-07-08T12:36:59;97544.41;;;28.88
19102;BMP280;9683;49.028;12.064;2023-07-08T12:39:25;97543.41;;;28.93
19102;BMP280;9683;49.028;12.064;2023-07-08T12:41:52;97540.00;;;28.96
19102;BMP280;9683;49.028;12.064;2023-07-08T12:44:20;97531.13;;;28.99
19102;BMP280;9683;49.028;12.064;2023-07-08T12:46:52;97527.38;;;29.03
19102;BMP280;9683;49.028;12.064;2023-07-08T12:49:19;97534.59;;;29.08
19102;BMP280;9683;49.028;12.064;2023-07-08T12:51:47;97540.53;;;29.10
19102;BMP280;9683;49.028;12.064;2023-07-08T12:54:14;97533.13;;;29.10
19102;BMP280;9683;49.028;12.064;2023-07-08T12:56:44;97536.91;;;29.18
19102;BMP280;9683;49.028;12.064;2023-07-08T12:59:14;97531.56;;;29.22
19102;BMP280;9683;49.028;12.064;2023-07-08T13:01:45;97528.59;;;29.27
19102;BMP280;9683;49.028;12.064;2023-07-08T13:04:14;97521.00;;;29.32
19102;BMP280;9683;49.028;12.064;2023-07-08T13:06:43;97519.78;;;29.42
19102;BMP280;9683;49.028;12.064;2023-07-08T13:09:28;97529.19;;;29.53
19102;BMP280;9683;49.028;12.064;2023-07-08T13:11:56;97520.84;;;29.62
19102;BMP280;9683;49.028;12.064;2023-07-08T13:14:24;97513.06;;;29.64
19102;BMP280;9683;49.028;12.064;2023-07-08T13:16:51;97530.38;;;29.76
19102;BMP280;9683;49.028;12.064;2023-07-08T13:19:20;97528.69;;;29.84
19102;BMP280;9683;49.028;12.064;2023-07-08T13:21:47;97537.19;;;29.91
19102;BMP280;9683;49.028;12.064;2023-07-08T13:24:14;97535.47;;;29.98
19102;BMP280;9683;49.028;12.064;2023-07-08T13:26:44;97543.59;;;30.07
19102;BMP280;9683;49.028;12.064;2023-07-08T13:29:15;97540.28;;;30.14
19102;BMP280;9683;49.028;12.064;2023-07-08T13:31:46;97543.63;;;30.19
19102;BMP280;9683;49.028;12.064;2023-07-08T13:34:16;97531.91;;;30.22
19102;BMP280;9683;49.028;12.064;2023-07-08T13:36:45;97505.84;;;30.16
19102;BMP280;9683;49.028;12.064;2023-07-08T13:39:17;97534.09;;;30.41
19102;BMP280;9683;49.028;12.064;2023-07-08T13:41:46;97532.78;;;30.47
19102;BMP280;9683;49.028;12.064;2023-07-08T13:44:13;97492.53;;;30.30
19102;BMP280;9683;49.028;12.064;2023-07-08T13:46:45;97530.78;;;30.72
19102;BMP280;9683;49.028;12.064;2023-07-08T13:49:14;97519.78;;;30.72
19102;BMP280;9683;49.028;12.064;2023-07-08T13:51:41;97534.53;;;30.79
19102;BMP280;9683;49.028;12.064;2023-07-08T13:54:20;97526.19;;;30.76
19102;BMP280;9683;49.028;12.064;2023-07-08T13:56:48;97525.81;;;30.77
19102;BMP280;9683;49.028;12.064;2023-07-08T13:59:18;97533.03;;;30.82
19102;BMP280;9683;49.028;12.064;2023-07-08T14:01:45;97524.09;;;30.85
19102;BMP280;9683;49.028;12.064;2023-07-08T14:04:13;97531.84;;;30.95
19102;BMP280;9683;49.028;12.064;2023-07-08T14:06:41;97533.00;;;31.06
19102;BMP280;9683;49.028;12.064;2023-07-08T14:09:12;97531.19;;;31.26
19102;BMP280;9683;49.028;12.064;2023-07-08T14:11:40;97472.72;;;31.17
19102;BMP280;9683;49.028;12.064;2023-07-08T14:14:08;97516.72;;;31.57
19102;BMP280;9683;49.028;12.064;2023-07-08T14:16:37;97518.06;;;31.63
19102;BMP280;9683;49.028;12.064;2023-07-08T14:19:06;97517.81;;;31.68